createdAt,value
2022-12-19T00:00:25.111Z,-8.08
2022-12-19T00:02:56.508Z,-8.56
2022-12-19T00:05:23.592Z,-8.05
2022-12-19T00:07:59.687Z,-8.15
2022-12-19T00:10:32.190Z,-8.16
2022-12-19T00:12:59.362Z,-8.36
2022-12-19T00:15:31.030Z,-8.16
2022-12-19T00:18:02.286Z,-8.16
2022-12-19T00:20:29.157Z,-8.32
2022-12-19T00:22:56.191Z,-8.15
2022-12-19T00:25:22.855Z,-8.01
2022-12-19T00:27:52.514Z,-8.11
2022-12-19T00:30:19.374Z,-8.21
2022-12-19T00:32:47.758Z,-7.90
2022-12-19T00:35:17.416Z,-8.18
2022-12-19T00:37:49.584Z,-7.98
2022-12-19T00:40:31.308Z,-7.58
2022-12-19T00:42:59.826Z,-7.45
2022-12-19T00:45:28.092Z,-7.46
2022-12-19T00:47:57.067Z,-7.34
2022-12-19T00:50:25.821Z,-7.78
2022-12-19T00:52:53.151Z,-7.52
2022-12-19T00:55:20.218Z,-7.69
2022-12-19T00:57:50.066Z,-7.63
2022-12-19T01:00:25.602Z,-7.85
2022-12-19T01:02:59.830Z,-7.76
2022-12-19T01:05:34.152Z,-7.48
2022-12-19T01:08:05.477Z,-7.53
2022-12-19T01:10:52.099Z,-7.38
2022-12-19T01:13:23.776Z,-7.21
2022-12-19T01:15:52.626Z,-7.15
2022-12-19T01:18:19.297Z,-7.20
2022-12-19T01:20:48.327Z,-7.15
2022-12-19T01:23:17.931Z,-7.30
2022-12-19T01:25:54.439Z,-7.49
2022-12-19T01:28:23.149Z,-7.55
2022-12-19T01:30:50.433Z,-7.66
2022-12-19T01:33:18.878Z,-7.30
2022-12-19T01:35:49.083Z,-7.14
2022-12-19T01:38:19.553Z,-7.27
2022-12-19T01:40:51.803Z,-7.29
2022-12-19T01:43:58.382Z,-7.05
2022-12-19T01:46:46.638Z,-6.94
2022-12-19T01:49:36.343Z,-7.10
2022-12-19T01:52:20.761Z,-6.97
2022-12-19T01:54:51.106Z,-7.12
2022-12-19T01:57:20.349Z,-7.28
2022-12-19T01:59:54.555Z,-7.24
2022-12-19T02:02:39.953Z,-7.17
2022-12-19T02:05:19.399Z,-6.99
2022-12-19T02:07:53.185Z,-6.96
2022-12-19T02:10:22.097Z,-7.14
2022-12-19T02:12:50.010Z,-6.81
2022-12-19T02:15:18.231Z,-7.01
2022-12-19T02:18:00.227Z,-6.79
2022-12-19T02:20:37.922Z,-7.26
2022-12-19T02:23:26.588Z,-6.94
2022-12-19T02:26:24.612Z,-6.74
2022-12-19T02:29:21.212Z,-6.76
2022-12-19T02:32:32.239Z,-6.87
2022-12-19T02:35:25.313Z,-6.95
2022-12-19T02:38:19.791Z,-6.61
2022-12-19T02:41:09.927Z,-6.59
2022-12-19T02:43:49.096Z,-6.70
2022-12-19T02:46:28.801Z,-6.50
2022-12-19T02:49:01.558Z,-6.55
2022-12-19T02:52:01.905Z,-6.60
2022-12-19T02:54:29.231Z,-6.49
2022-12-19T02:57:13.822Z,-6.83
2022-12-19T02:59:54.136Z,-6.57
2022-12-19T03:03:00.658Z,-6.65
2022-12-19T03:06:23.209Z,-6.75
2022-12-19T03:09:14.000Z,-6.67
2022-12-19T03:11:45.520Z,-6.41
2022-12-19T03:14:21.320Z,-6.67
2022-12-19T03:16:49.766Z,-6.63
2022-12-19T03:19:19.723Z,-6.51
2022-12-19T03:21:49.156Z,-6.53
2022-12-19T03:24:19.873Z,-6.44
2022-12-19T03:26:57.089Z,-6.28
2022-12-19T03:29:32.728Z,-6.20
2022-12-19T03:32:09.642Z,-6.11
2022-12-19T03:34:49.045Z,-6.47
2022-12-19T03:37:22.492Z,-6.60
2022-12-19T03:44:23.904Z,-6.23
2022-12-19T03:47:33.806Z,-6.54
2022-12-19T03:50:03.831Z,-6.35
2022-12-19T03:52:59.895Z,-6.38
2022-12-19T03:55:51.775Z,-6.34
2022-12-19T03:58:42.179Z,-6.03
2022-12-19T04:01:13.085Z,-6.35
2022-12-19T04:03:43.141Z,-6.14
2022-12-19T04:06:36.811Z,-6.05
2022-12-19T04:09:06.676Z,-6.51
2022-12-19T04:11:49.190Z,-6.25
2022-12-19T04:14:32.222Z,-6.15
2022-12-19T04:17:23.644Z,-6.12
2022-12-19T04:19:53.442Z,-6.10
2022-12-19T04:22:42.015Z,-6.80
2022-12-19T04:25:19.094Z,-6.08
2022-12-19T04:27:52.198Z,-6.40
2022-12-19T04:30:29.970Z,-6.21
2022-12-19T04:33:09.502Z,-6.27
2022-12-19T04:35:40.979Z,-5.83
2022-12-19T04:38:08.538Z,-6.22
2022-12-19T04:40:42.342Z,-6.00
2022-12-19T04:43:09.807Z,-6.13
2022-12-19T04:45:42.034Z,-6.13
2022-12-19T04:48:31.713Z,-6.09
2022-12-19T04:50:58.797Z,-5.95
2022-12-19T04:53:30.635Z,-6.02
2022-12-19T04:56:02.362Z,-5.96
2022-12-19T04:58:32.581Z,-6.20
2022-12-19T05:01:07.200Z,-6.25
2022-12-19T05:03:35.717Z,-6.21
2022-12-19T05:06:39.825Z,-6.08
2022-12-19T05:09:10.583Z,-6.31
2022-12-19T05:11:41.109Z,-6.42
2022-12-19T05:14:21.919Z,-6.08
2022-12-19T05:16:49.118Z,-6.18
2022-12-19T05:19:18.912Z,-6.07
2022-12-19T05:21:49.107Z,-6.11
2022-12-19T05:24:17.860Z,-5.90
2022-12-19T05:26:49.338Z,-5.94
2022-12-19T05:29:20.180Z,-6.25
2022-12-19T05:31:52.322Z,-7.28
2022-12-19T05:34:36.845Z,-6.59
2022-12-19T05:37:29.794Z,-6.62
2022-12-19T05:40:01.367Z,-6.24
2022-12-19T05:42:43.033Z,-6.39
2022-12-19T05:47:59.961Z,-5.83
2022-12-19T05:59:15.204Z,-5.88
2022-12-19T06:01:57.160Z,-6.14
2022-12-19T06:04:46.506Z,-6.39
2022-12-19T06:07:20.716Z,-5.81
2022-12-19T06:09:54.751Z,-6.05
2022-12-19T06:12:39.444Z,-5.99
2022-12-19T06:23:02.211Z,-6.16
2022-12-19T06:25:56.516Z,-6.17
2022-12-19T06:28:30.565Z,-5.70
2022-12-19T06:31:46.852Z,-5.67
2022-12-19T06:34:55.143Z,-5.73
2022-12-19T06:37:10.941Z,-5.80
2022-12-19T06:39:45.432Z,-5.67
2022-12-19T06:42:30.969Z,-5.77
2022-12-19T06:45:05.032Z,-6.40
2022-12-19T06:50:48.695Z,-5.94
2022-12-19T06:53:28.199Z,-6.04
2022-12-19T06:56:04.696Z,-6.20
2022-12-19T06:58:36.504Z,-7.23
2022-12-19T07:02:00.196Z,-6.29
2022-12-19T07:05:06.533Z,-5.75
2022-12-19T07:07:40.338Z,-5.91
2022-12-19T07:10:09.115Z,-5.93
2022-12-19T07:12:51.499Z,-5.75
2022-12-19T07:15:22.391Z,-6.22
2022-12-19T07:17:49.335Z,-5.83
2022-12-19T07:23:50.574Z,-5.80
2022-12-19T07:27:35.824Z,-5.52
2022-12-19T07:30:11.083Z,-5.53
2022-12-19T07:36:40.931Z,-5.69
2022-12-19T07:39:19.639Z,-5.74
2022-12-19T07:41:51.984Z,-5.84
2022-12-19T07:47:18.989Z,-5.30
2022-12-19T07:50:31.370Z,-5.52
2022-12-19T07:53:10.925Z,-5.04
2022-12-19T07:58:21.236Z,-4.89
2022-12-19T08:00:56.689Z,-4.89
2022-12-19T08:03:29.807Z,-4.69
2022-12-19T08:09:14.327Z,-5.04
2022-12-19T08:11:54.934Z,-5.29
2022-12-19T08:14:31.127Z,-5.26
2022-12-19T08:17:25.785Z,-4.55
2022-12-19T08:19:59.869Z,-4.91
2022-12-19T08:22:53.161Z,-4.47
2022-12-19T08:25:50.404Z,-4.55
2022-12-19T08:28:45.373Z,-5.19
2022-12-19T08:31:40.367Z,-4.55
2022-12-19T08:34:19.035Z,-4.70
2022-12-19T08:36:50.379Z,-4.94
2022-12-19T08:39:21.226Z,-4.82
2022-12-19T08:42:30.011Z,-4.95
2022-12-19T08:45:05.076Z,-5.14
2022-12-19T08:47:55.337Z,-4.83
2022-12-19T08:50:42.769Z,-5.29
2022-12-19T08:53:19.000Z,-5.38
2022-12-19T08:57:11.514Z,-5.04
2022-12-19T09:00:24.283Z,-5.03
2022-12-19T09:03:49.028Z,-4.77
2022-12-19T09:07:15.731Z,-3.72
2022-12-19T09:10:20.475Z,-3.61
2022-12-19T09:13:16.037Z,-4.15
2022-12-19T09:16:55.651Z,-4.07
2022-12-19T09:20:24.202Z,-3.96
2022-12-19T09:24:07.495Z,-3.84
2022-12-19T09:31:44.366Z,-2.56
2022-12-19T09:34:38.419Z,-3.06
2022-12-19T09:38:11.380Z,-2.43
2022-12-19T09:44:41.267Z,-2.94
2022-12-19T09:47:23.511Z,-2.62
2022-12-19T09:50:44.308Z,-2.96
2022-12-19T09:54:14.869Z,-2.52
2022-12-19T09:58:01.119Z,-2.92
2022-12-19T10:00:43.732Z,-2.35
2022-12-19T10:03:52.256Z,-2.02
2022-12-19T10:07:22.356Z,-1.83
2022-12-19T10:13:00.109Z,-2.18
2022-12-19T10:16:00.262Z,-2.75
2022-12-19T10:22:42.785Z,-2.88
2022-12-19T10:28:35.335Z,-2.48
2022-12-19T10:31:22.193Z,-2.23
2022-12-19T10:34:31.890Z,-2.05
2022-12-19T10:37:31.447Z,-2.05
2022-12-19T10:40:52.745Z,-2.05
2022-12-19T10:43:55.196Z,-1.97
2022-12-19T10:46:50.220Z,-2.19
2022-12-19T10:49:35.963Z,-2.61
2022-12-19T10:52:13.302Z,-2.85
2022-12-19T10:55:10.522Z,-2.91
2022-12-19T10:57:59.375Z,-2.81
2022-12-19T11:04:55.610Z,-2.55
2022-12-19T11:07:23.160Z,-2.28
2022-12-19T11:10:35.723Z,-2.65
2022-12-19T11:18:21.322Z,-2.24
2022-12-19T11:21:26.892Z,-1.71
2022-12-19T11:29:37.054Z,-1.89
2022-12-19T11:29:38.938Z,-2.60
2022-12-19T11:31:52.841Z,-2.58
2022-12-19T11:32:41.045Z,-2.24
2022-12-19T11:35:37.577Z,-2.12
2022-12-19T11:38:11.120Z,-2.13
2022-12-19T11:44:25.315Z,-0.64
2022-12-19T11:50:52.165Z,-0.13
2022-12-19T11:53:59.599Z,0.03
2022-12-19T11:56:39.672Z,0.68
2022-12-19T11:59:34.481Z,0.62
2022-12-19T12:02:36.597Z,0.76
2022-12-19T12:05:15.974Z,0.12
2022-12-19T12:09:36.083Z,-0.30
2022-12-19T12:18:32.470Z,0.03
2022-12-19T12:24:25.031Z,0.11
2022-12-19T12:31:20.323Z,-0.37
2022-12-19T12:31:29.754Z,0.05
2022-12-19T12:31:40.920Z,-1.13
2022-12-19T12:32:00.573Z,-1.58
2022-12-19T12:35:34.974Z,-0.85
2022-12-19T12:40:55.431Z,-0.85
2022-12-19T12:43:44.669Z,-0.45
2022-12-19T12:46:24.906Z,-0.28
2022-12-19T12:49:05.737Z,-0.89
2022-12-19T12:52:52.282Z,-0.84
2022-12-19T12:55:51.533Z,-0.72
2022-12-19T12:58:59.517Z,-0.61
2022-12-19T13:01:40.095Z,-0.54
2022-12-19T13:04:31.974Z,-0.20
2022-12-19T13:07:22.005Z,-0.49
2022-12-19T13:09:58.869Z,-0.44
2022-12-19T13:12:50.757Z,-1.17
2022-12-19T13:15:32.687Z,-0.99
2022-12-19T13:18:24.688Z,-0.82
2022-12-19T13:20:55.786Z,-0.41
2022-12-19T13:23:38.033Z,-0.63
2022-12-19T13:26:43.578Z,-0.48
2022-12-19T13:29:52.104Z,-0.27
2022-12-19T13:32:33.102Z,0.02
2022-12-19T13:35:07.005Z,0.22
2022-12-19T13:39:56.901Z,0.06
2022-12-19T13:41:58.385Z,-0.02
2022-12-19T13:44:31.095Z,0.36
2022-12-19T13:46:59.760Z,0.04
2022-12-19T13:49:35.386Z,-1.13
2022-12-19T13:52:04.192Z,-1.33
2022-12-19T13:54:47.326Z,-1.56
2022-12-19T13:57:31.866Z,-1.30
2022-12-19T14:00:10.057Z,-1.22
2022-12-19T14:02:49.986Z,-1.30
2022-12-19T14:06:14.929Z,-1.53
2022-12-19T14:08:25.673Z,-1.21
2022-12-19T14:11:33.693Z,-1.19
2022-12-19T14:14:20.569Z,-0.96
2022-12-19T14:17:07.095Z,-0.65
2022-12-19T14:19:41.456Z,-0.76
2022-12-19T14:22:35.548Z,-0.76
2022-12-19T14:25:10.160Z,-0.65
2022-12-19T14:28:21.196Z,-1.10
2022-12-19T14:31:00.474Z,-1.12
2022-12-19T14:34:11.647Z,-0.70
2022-12-19T14:37:00.335Z,-0.95
2022-12-19T14:39:35.852Z,-0.25
2022-12-19T14:43:48.076Z,-0.31
2022-12-19T14:54:00.204Z,-0.54
2022-12-19T14:54:28.662Z,-2.51
2022-12-19T14:56:17.806Z,-2.02
2022-12-19T14:58:53.971Z,-2.32
2022-12-19T15:02:13.248Z,-2.26
2022-12-19T15:05:31.684Z,-2.24
2022-12-19T15:08:14.189Z,-2.40
2022-12-19T15:11:05.455Z,-2.34
2022-12-19T15:16:28.877Z,-2.28
2022-12-19T15:18:14.053Z,-1.30
2022-12-19T15:21:16.096Z,-1.89
2022-12-19T15:24:43.381Z,-1.52
2022-12-19T15:32:00.390Z,-1.93
2022-12-19T15:35:05.939Z,-1.37
2022-12-19T15:37:45.870Z,-1.73
2022-12-19T15:40:21.467Z,-2.00
2022-12-19T15:42:58.796Z,-1.79
2022-12-19T15:45:30.882Z,-1.79
2022-12-19T15:47:57.883Z,-1.54
2022-12-19T15:50:33.099Z,-1.94
2022-12-19T15:53:40.200Z,-1.21
2022-12-19T15:56:28.914Z,-1.53
2022-12-19T15:59:05.288Z,-0.76
2022-12-19T16:01:42.833Z,-0.57
2022-12-19T16:05:05.142Z,-0.42
2022-12-19T16:07:55.296Z,-0.93
2022-12-19T16:22:58.343Z,-1.51
2022-12-19T16:26:05.038Z,-1.74
2022-12-19T16:28:41.530Z,-2.20
2022-12-19T16:31:16.622Z,-2.15
2022-12-19T16:33:43.356Z,-1.96
2022-12-19T16:36:45.780Z,-1.56
2022-12-19T16:39:16.940Z,-1.13
2022-12-19T16:42:01.368Z,-1.09
2022-12-19T16:44:35.927Z,-1.34
2022-12-19T16:47:02.845Z,-1.35
2022-12-19T16:49:30.766Z,-1.03
2022-12-19T16:51:57.560Z,-1.21
2022-12-19T16:54:24.192Z,-1.58
2022-12-19T16:56:52.939Z,-1.55
2022-12-19T16:59:29.053Z,-1.61
2022-12-19T17:01:56.599Z,-1.75
2022-12-19T17:04:25.656Z,-1.45
2022-12-19T17:06:53.791Z,-1.31
2022-12-19T17:09:31.505Z,-1.26
2022-12-19T17:12:02.108Z,-0.92
2022-12-19T17:14:39.113Z,-0.79
2022-12-19T17:17:17.174Z,-1.28
2022-12-19T17:19:51.054Z,-1.15
2022-12-19T17:22:30.954Z,-1.70
2022-12-19T17:25:30.719Z,-1.56
2022-12-19T17:28:06.817Z,-1.90
2022-12-19T17:31:04.959Z,-1.93
2022-12-19T17:33:58.627Z,-1.74
2022-12-19T17:36:38.815Z,-2.24
2022-12-19T17:39:25.054Z,-1.73
2022-12-19T17:41:58.372Z,-2.09
2022-12-19T17:44:28.814Z,-2.29
2022-12-19T17:48:18.438Z,-1.78
2022-12-19T17:54:45.468Z,-1.57
2022-12-19T17:57:19.713Z,-1.12
2022-12-19T17:59:52.586Z,-0.69
2022-12-19T18:03:37.264Z,-0.46
2022-12-19T18:11:13.976Z,-0.39
2022-12-19T18:13:57.474Z,-0.26
2022-12-19T18:16:39.949Z,-0.52
2022-12-19T18:19:08.635Z,-0.55
2022-12-19T18:21:38.340Z,-0.69
2022-12-19T18:24:29.444Z,-0.17
2022-12-19T18:27:25.899Z,-0.18
2022-12-19T18:35:16.461Z,-1.37
2022-12-19T18:37:48.931Z,-0.26
2022-12-19T18:41:11.279Z,-0.89
2022-12-19T18:47:24.082Z,-1.01
2022-12-19T18:50:30.793Z,-0.62
2022-12-19T18:53:48.142Z,-0.97
2022-12-19T18:56:48.176Z,-1.10
2022-12-19T18:59:31.423Z,-0.71
2022-12-19T19:02:04.104Z,-0.27
2022-12-19T19:07:25.418Z,-0.53
2022-12-19T19:09:55.237Z,-0.10
2022-12-19T19:21:05.523Z,-0.23
2022-12-19T19:24:05.071Z,-0.91
2022-12-19T19:26:43.892Z,-0.54
2022-12-19T19:29:13.599Z,0.05
2022-12-19T19:31:44.712Z,-0.66
2022-12-19T19:34:55.705Z,0.04
2022-12-19T19:38:28.167Z,0.33
2022-12-19T19:41:54.923Z,0.50
2022-12-19T19:44:31.085Z,0.39
2022-12-19T19:47:03.462Z,0.51
2022-12-19T19:49:41.971Z,0.36
2022-12-19T19:52:18.468Z,0.33
2022-12-19T19:54:48.130Z,-0.05
2022-12-19T19:57:14.859Z,-0.08
2022-12-19T19:59:42.764Z,-0.54
2022-12-19T20:02:11.435Z,-0.72
2022-12-19T20:04:41.311Z,-0.61
2022-12-19T20:07:08.471Z,-1.07
2022-12-19T20:09:36.557Z,-1.36
2022-12-19T20:12:03.536Z,-1.19
2022-12-19T20:14:30.769Z,-1.40
2022-12-19T20:17:02.719Z,-1.03
2022-12-19T20:19:32.744Z,-0.86
2022-12-19T20:22:01.267Z,-1.25
2022-12-19T20:24:32.220Z,-1.26
2022-12-19T20:27:05.619Z,-1.24
2022-12-19T20:29:36.678Z,-1.35
2022-12-19T20:32:08.084Z,-1.12
2022-12-19T20:34:43.184Z,-1.26
2022-12-19T20:37:15.291Z,-0.98
2022-12-19T20:39:44.834Z,-0.61
2022-12-19T20:42:14.370Z,-0.13
2022-12-19T20:44:47.770Z,-0.57
2022-12-19T20:47:17.134Z,-0.10
2022-12-19T20:49:44.662Z,-0.13
2022-12-19T20:52:11.996Z,0.08
2022-12-19T20:54:39.477Z,0.18
2022-12-19T20:57:24.054Z,0.23
2022-12-19T20:59:53.206Z,0.12
2022-12-19T21:02:23.278Z,0.32
2022-12-19T21:04:51.263Z,-0.16
2022-12-19T21:07:24.394Z,-0.48
2022-12-19T21:10:05.076Z,-0.62
2022-12-19T21:12:47.199Z,-0.84
2022-12-19T21:15:15.544Z,-0.49
2022-12-19T21:17:44.914Z,-0.56
2022-12-19T21:20:14.876Z,-0.54
2022-12-19T21:22:41.781Z,-0.73
2022-12-19T21:25:11.444Z,-1.25
2022-12-19T21:27:38.374Z,-1.62
2022-12-19T21:30:06.528Z,-1.28
2022-12-19T21:32:36.467Z,-1.63
2022-12-19T21:35:03.576Z,-1.83
2022-12-19T21:37:31.049Z,-1.75
2022-12-19T21:39:58.570Z,-1.69
2022-12-19T21:42:25.820Z,-1.17
2022-12-19T21:44:54.911Z,-1.15
2022-12-19T21:47:21.578Z,-1.07
2022-12-19T21:49:49.511Z,-0.99
2022-12-19T21:52:16.164Z,-0.92
2022-12-19T21:54:45.846Z,-0.86
2022-12-19T21:57:15.006Z,-0.96
2022-12-19T21:59:45.755Z,-0.98
2022-12-19T22:02:14.455Z,-0.87
2022-12-19T22:04:41.350Z,-0.73
2022-12-19T22:07:11.303Z,-0.78
2022-12-19T22:09:46.144Z,-1.04
2022-12-19T22:12:16.640Z,-1.24
2022-12-19T22:14:44.797Z,-1.25
2022-12-19T22:17:11.585Z,-1.42
2022-12-19T22:19:39.810Z,-1.04
2022-12-19T22:22:07.019Z,-1.40
2022-12-19T22:24:34.135Z,-1.66
2022-12-19T22:27:05.040Z,-1.48
2022-12-19T22:29:36.447Z,-1.49
2022-12-19T22:32:04.594Z,-1.34
2022-12-19T22:34:31.727Z,-1.23
2022-12-19T22:36:58.604Z,-1.25
2022-12-19T22:39:28.500Z,-1.10
2022-12-19T22:41:59.797Z,-1.38
2022-12-19T22:44:26.565Z,-1.53
2022-12-19T22:46:56.415Z,-1.40
2022-12-19T22:49:23.175Z,-1.78
2022-12-19T22:51:50.260Z,-2.07
2022-12-19T22:54:16.878Z,-2.12
2022-12-19T22:56:52.575Z,-2.45
2022-12-19T22:59:22.518Z,-2.45
2022-12-19T23:01:49.973Z,-3.04
2022-12-19T23:04:17.736Z,-3.31
2022-12-19T23:06:47.520Z,-3.28
2022-12-19T23:09:27.839Z,-3.01
2022-12-19T23:11:55.100Z,-3.11
2022-12-19T23:14:25.059Z,-3.18
2022-12-19T23:16:58.063Z,-3.69
2022-12-19T23:19:25.114Z,-3.24
2022-12-19T23:21:51.711Z,-3.59
2022-12-19T23:24:21.117Z,-3.84
2022-12-19T23:26:51.499Z,-3.68
2022-12-19T23:29:18.480Z,-3.54
2022-12-19T23:31:46.502Z,-3.38
2022-12-19T23:34:15.768Z,-3.52
2022-12-19T23:39:45.939Z,-3.45
2022-12-19T23:42:15.243Z,-3.58
2022-12-19T23:44:42.203Z,-3.49
2022-12-19T23:47:22.980Z,-3.21
2022-12-19T23:49:49.825Z,-3.34
2022-12-19T23:52:16.596Z,-3.26
2022-12-19T23:54:43.596Z,-3.28
2022-12-19T23:57:10.443Z,-3.09
2022-12-19T23:59:37.220Z,-3.36
